createdAt,value
2022-09-01T00:00:54.989Z,19.60
2022-09-01T00:06:57.482Z,19.60
2022-09-01T00:12:59.908Z,19.60
2022-09-01T00:19:02.766Z,19.60
2022-09-01T00:25:06.779Z,19.60
2022-09-01T00:31:11.495Z,19.60
2022-09-01T00:37:13.962Z,19.50
2022-09-01T00:43:22.146Z,19.50
2022-09-01T00:49:27.919Z,19.50
2022-09-01T00:55:33.511Z,19.40
2022-09-01T01:01:37.147Z,19.40
2022-09-01T01:07:42.721Z,19.40
2022-09-01T01:13:59.195Z,19.40
2022-09-01T01:20:20.368Z,19.40
2022-09-01T01:26:23.172Z,19.30
2022-09-01T01:32:25.767Z,19.30
2022-09-01T01:38:29.170Z,19.30
2022-09-01T01:44:32.619Z,19.40
2022-09-01T01:50:38.432Z,19.40
2022-09-01T01:56:42.205Z,19.40
2022-09-01T02:02:49.441Z,19.50
2022-09-01T02:08:59.432Z,19.50
2022-09-01T02:15:02.972Z,19.50
2022-09-01T02:21:13.886Z,19.50
2022-09-01T02:27:23.597Z,19.50
2022-09-01T02:33:28.787Z,19.50
2022-09-01T02:39:34.891Z,19.50
2022-09-01T02:45:37.780Z,19.50
2022-09-01T02:51:40.070Z,19.40
2022-09-01T02:57:42.425Z,19.30
2022-09-01T03:03:44.798Z,19.30
2022-09-01T03:09:47.111Z,19.30
2022-09-01T03:15:50.558Z,19.30
2022-09-01T03:21:53.040Z,19.30
2022-09-01T03:28:03.460Z,19.30
2022-09-01T03:34:06.988Z,19.30
2022-09-01T03:40:16.366Z,19.30
2022-09-01T03:46:22.182Z,19.30
2022-09-01T03:52:30.392Z,19.40
2022-09-01T03:58:32.897Z,19.40
2022-09-01T04:04:36.545Z,19.50
2022-09-01T04:10:44.712Z,19.60
2022-09-01T04:17:05.474Z,19.60
2022-09-01T04:23:11.379Z,19.80
2022-09-01T04:29:13.933Z,19.90
2022-09-01T04:35:17.375Z,20.20
2022-09-01T04:41:26.298Z,20.50
2022-09-01T04:47:35.716Z,20.70
2022-09-01T04:53:48.994Z,20.90
2022-09-01T04:59:52.188Z,21.70
2022-09-01T05:05:54.596Z,24.80
2022-09-01T05:12:00.109Z,26.90
2022-09-01T05:18:10.304Z,25.60
2022-09-01T05:24:19.470Z,24.40
2022-09-01T05:30:21.793Z,26.80
2022-09-01T05:36:24.513Z,29.00
2022-09-01T05:42:30.247Z,30.60
2022-09-01T05:48:35.372Z,31.90
2022-09-01T05:54:38.307Z,28.20
2022-09-01T06:00:43.030Z,26.20
2022-09-01T06:07:06.368Z,25.20
2022-09-01T06:13:16.196Z,24.20
2022-09-01T06:19:21.247Z,23.70
2022-09-01T06:25:24.229Z,23.60
2022-09-01T06:31:34.244Z,23.70
2022-09-01T06:37:46.395Z,24.10
2022-09-01T06:44:01.790Z,24.30
2022-09-01T06:50:08.840Z,24.00
2022-09-01T06:56:13.683Z,24.60
2022-09-01T07:02:18.865Z,24.50
2022-09-01T07:21:42.374Z,25.10
2022-09-01T07:28:00.362Z,25.60
2022-09-01T07:47:20.314Z,30.00
2022-09-01T07:53:40.558Z,32.60
2022-09-01T07:59:47.775Z,34.30
2022-09-01T08:05:57.976Z,31.80
2022-09-01T08:12:02.632Z,32.20
2022-09-01T08:18:09.090Z,30.90
2022-09-01T08:24:14.830Z,29.70
2022-09-01T08:30:17.515Z,30.50
2022-09-01T08:36:24.033Z,29.90
2022-09-01T08:42:53.202Z,32.20
2022-09-01T08:55:58.841Z,34.10
2022-09-01T09:02:25.292Z,32.40
2022-09-01T09:08:47.105Z,32.70
2022-09-01T09:15:01.504Z,31.90
2022-09-01T09:21:14.606Z,31.70
2022-09-01T09:27:22.762Z,32.70
2022-09-01T09:33:51.353Z,31.70
2022-09-01T09:40:12.622Z,35.10
2022-09-01T09:46:27.611Z,35.80
2022-09-01T09:52:29.866Z,34.90
2022-09-01T09:58:40.774Z,35.20
2022-09-01T10:04:43.170Z,35.90
2022-09-01T10:10:58.303Z,36.30
2022-09-01T10:17:06.476Z,35.50
2022-09-01T10:23:15.311Z,35.30
2022-09-01T10:29:23.359Z,35.10
2022-09-01T10:35:35.236Z,35.80
2022-09-01T10:41:53.298Z,35.70
2022-09-01T10:48:30.474Z,35.30
2022-09-01T10:54:57.279Z,35.40
2022-09-01T11:01:40.528Z,34.40
2022-09-01T11:07:33.488Z,35.50
2022-09-01T11:13:50.329Z,34.90
2022-09-01T11:20:10.525Z,34.40
2022-09-01T11:26:35.426Z,34.50
2022-09-01T11:32:40.857Z,34.50
2022-09-01T11:38:58.929Z,33.40
2022-09-01T11:45:20.796Z,34.60
2022-09-01T11:51:24.676Z,34.70
2022-09-01T11:57:32.971Z,35.00
2022-09-01T12:03:37.413Z,35.20
2022-09-01T12:09:46.853Z,34.50
2022-09-01T12:16:17.960Z,34.70
2022-09-01T12:22:22.776Z,35.20
2022-09-01T12:28:30.380Z,34.40
2022-09-01T12:34:48.326Z,34.30
2022-09-01T12:40:56.240Z,31.90
2022-09-01T12:47:10.940Z,31.40
2022-09-01T12:53:16.480Z,33.40
2022-09-01T12:59:37.281Z,34.40
2022-09-01T13:05:51.071Z,34.60
2022-09-01T13:12:09.970Z,34.80
2022-09-01T13:18:12.946Z,34.10
2022-09-01T13:24:15.575Z,33.80
2022-09-01T13:30:21.461Z,33.70
2022-09-01T13:42:50.257Z,31.30
2022-09-01T13:55:22.467Z,28.70
2022-09-01T14:01:25.321Z,28.40
2022-09-01T14:07:27.648Z,28.10
2022-09-01T14:13:31.537Z,28.00
2022-09-01T14:19:34.388Z,27.90
2022-09-01T14:25:37.949Z,27.70
2022-09-01T14:31:40.137Z,27.50
2022-09-01T14:37:42.510Z,27.50
2022-09-01T14:43:44.689Z,27.20
2022-09-01T14:49:47.112Z,27.20
2022-09-01T14:55:51.491Z,27.10
2022-09-01T15:01:57.526Z,27.00
2022-09-01T15:08:00.265Z,26.80
2022-09-01T15:14:02.842Z,26.70
2022-09-01T15:20:24.815Z,26.70
2022-09-01T15:26:28.218Z,26.70
2022-09-01T15:32:30.514Z,26.60
2022-09-01T15:38:32.915Z,26.60
2022-09-01T15:44:36.098Z,26.40
2022-09-01T15:50:38.319Z,26.30
2022-09-01T15:56:40.743Z,26.20
2022-09-01T16:02:43.485Z,26.00
2022-09-01T16:08:45.923Z,25.80
2022-09-01T16:14:48.524Z,25.60
2022-09-01T16:20:56.080Z,25.50
2022-09-01T16:26:58.458Z,25.40
2022-09-01T16:33:05.240Z,25.30
2022-09-01T16:39:17.054Z,25.10
2022-09-01T16:45:22.311Z,24.90
2022-09-01T16:51:42.895Z,24.80
2022-09-01T16:58:12.637Z,24.60
2022-09-01T17:04:24.133Z,24.60
2022-09-01T17:10:41.552Z,24.50
2022-09-01T17:16:45.441Z,24.30
2022-09-01T17:22:52.500Z,24.20
2022-09-01T17:29:09.824Z,24.10
2022-09-01T17:35:37.065Z,24.00
2022-09-01T17:41:48.310Z,23.90
2022-09-01T17:48:06.415Z,23.90
2022-09-01T17:54:41.412Z,23.70
2022-09-01T18:00:58.828Z,23.70
2022-09-01T18:07:14.834Z,23.50
2022-09-01T18:13:36.159Z,23.50
2022-09-01T18:19:56.626Z,23.30
2022-09-01T18:26:09.748Z,23.40
2022-09-01T18:32:37.042Z,23.30
2022-09-01T18:38:43.148Z,23.30
2022-09-01T18:45:05.932Z,23.30
2022-09-01T18:51:34.478Z,23.30
2022-09-01T18:57:40.731Z,23.40
2022-09-01T19:03:42.991Z,23.40
2022-09-01T19:09:51.437Z,23.30
2022-09-01T19:16:32.570Z,23.30
2022-09-01T19:22:50.150Z,23.10
2022-09-01T19:29:01.468Z,23.20
2022-09-01T19:35:12.212Z,23.10
2022-09-01T19:41:33.448Z,23.00
2022-09-01T19:47:58.265Z,23.00
2022-09-01T19:54:28.083Z,23.00
2022-09-01T20:01:06.040Z,22.90
2022-09-01T20:07:22.625Z,22.90
2022-09-01T20:13:55.683Z,22.90
2022-09-01T20:20:01.935Z,22.90
2022-09-01T20:26:10.983Z,22.90
2022-09-01T20:32:22.438Z,22.90
2022-09-01T20:38:51.098Z,22.90
2022-09-01T20:44:57.929Z,23.00
2022-09-01T20:51:08.173Z,23.00
2022-09-01T20:57:10.324Z,23.00
2022-09-01T21:03:34.216Z,23.00
2022-09-01T21:09:42.699Z,23.00
2022-09-01T21:15:51.419Z,23.00
2022-09-01T21:22:05.037Z,23.00
2022-09-01T21:28:07.430Z,22.90
2022-09-01T21:34:12.714Z,22.90
2022-09-01T21:40:19.498Z,22.80
2022-09-01T21:46:21.919Z,22.80
2022-09-01T21:52:24.648Z,22.70
2022-09-01T21:58:26.931Z,22.70
2022-09-01T22:04:28.876Z,22.70
2022-09-01T22:10:32.790Z,22.70
2022-09-01T22:16:35.283Z,22.60
2022-09-01T22:22:38.142Z,22.60
2022-09-01T22:28:40.279Z,22.50
2022-09-01T22:34:43.629Z,22.50
2022-09-01T22:40:51.590Z,22.40
2022-09-01T22:46:53.835Z,22.40
2022-09-01T22:52:56.187Z,22.30
2022-09-01T22:59:04.333Z,22.20
2022-09-01T23:05:07.462Z,22.20
2022-09-01T23:11:10.082Z,22.10
2022-09-01T23:17:12.490Z,22.00
2022-09-01T23:23:15.604Z,21.90
2022-09-01T23:29:18.356Z,21.80
2022-09-01T23:35:20.862Z,21.80
2022-09-01T23:41:31.233Z,21.70
2022-09-01T23:47:33.557Z,21.60
2022-09-01T23:53:36.254Z,21.50
2022-09-01T23:59:38.604Z,21.50
